sensor_id;sensor_type;location;lat;lon;timestamp;temperature;humidity
7331;DHT22;3706;49.198;7.064;2023-08-06T00:00:57;14.40;99.90
7331;DHT22;3706;49.198;7.064;2023-08-06T00:03:24;14.50;99.90
7331;DHT22;3706;49.198;7.064;2023-08-06T00:05:51;14.40;99.90
7331;DHT22;3706;49.198;7.064;2023-08-06T00:08:18;14.40;99.90
7331;DHT22;3706;49.198;7.064;2023-08-06T00:10:47;14.40;99.90
7331;DHT22;3706;49.198;7.064;2023-08-06T00:13:14;14.40;99.90
7331;DHT22;3706;49.198;7.064;2023-08-06T00:15:41;14.30;99.90
7331;DHT22;3706;49.198;7.064;2023-08-06T00:18:08;14.30;99.90
7331;DHT22;3706;49.198;7.064;2023-08-06T00:20:35;14.20;99.90
7331;DHT22;3706;49.198;7.064;2023-08-06T00:23:01;14.20;99.90
7331;DHT22;3706;49.198;7.064;2023-08-06T00:25:29;14.20;99.90
7331;DHT22;3706;49.198;7.064;2023-08-06T00:27:57;14.10;99.90
7331;DHT22;3706;49.198;7.064;2023-08-06T00:30:24;14.00;99.90
7331;DHT22;3706;49.198;7.064;2023-08-06T00:32:51;14.00;99.90
7331;DHT22;3706;49.198;7.064;2023-08-06T00:35:17;14.00;99.90
7331;DHT22;3706;49.198;7.064;2023-08-06T00:37:44;13.90;99.90
7331;DHT22;3706;49.198;7.064;2023-08-06T00:40:11;14.00;99.90
7331;DHT22;3706;49.198;7.064;2023-08-06T00:42:38;14.00;99.90
7331;DHT22;3706;49.198;7.064;2023-08-06T00:45:07;13.90;99.90
7331;DHT22;3706;49.198;7.064;2023-08-06T00:47:34;13.90;99.90
7331;DHT22;3706;49.198;7.064;2023-08-06T00:50:01;13.80;99.90
7331;DHT22;3706;49.198;7.064;2023-08-06T00:52:28;13.80;99.90
7331;DHT22;3706;49.198;7.064;2023-08-06T00:54:56;13.80;99.90
7331;DHT22;3706;49.198;7.064;2023-08-06T00:57:24;13.80;99.90
7331;DHT22;3706;49.198;7.064;2023-08-06T00:59:51;13.80;99.90
7331;DHT22;3706;49.198;7.064;2023-08-06T01:02:20;13.80;99.90
7331;DHT22;3706;49.198;7.064;2023-08-06T01:04:47;13.80;99.90
7331;DHT22;3706;49.198;7.064;2023-08-06T01:07:21;13.80;99.90
7331;DHT22;3706;49.198;7.064;2023-08-06T01:10:00;13.80;99.90
7331;DHT22;3706;49.198;7.064;2023-08-06T01:12:34;13.90;99.90
7331;DHT22;3706;49.198;7.064;2023-08-06T01:15:14;13.90;99.90
7331;DHT22;3706;49.198;7.064;2023-08-06T01:17:45;14.00;99.90
7331;DHT22;3706;49.198;7.064;2023-08-06T01:20:13;14.00;99.90
7331;DHT22;3706;49.198;7.064;2023-08-06T01:22:41;14.00;99.90
7331;DHT22;3706;49.198;7.064;2023-08-06T01:25:08;14.00;99.90
7331;DHT22;3706;49.198;7.064;2023-08-06T01:27:42;14.00;99.90
7331;DHT22;3706;49.198;7.064;2023-08-06T01:30:13;13.90;99.90
7331;DHT22;3706;49.198;7.064;2023-08-06T01:32:44;13.90;99.90
7331;DHT22;3706;49.198;7.064;2023-08-06T01:35:13;13.90;99.90
7331;DHT22;3706;49.198;7.064;2023-08-06T01:37:42;13.80;99.90
7331;DHT22;3706;49.198;7.064;2023-08-06T01:40:10;13.80;99.90
7331;DHT22;3706;49.198;7.064;2023-08-06T01:42:37;13.80;99.90
7331;DHT22;3706;49.198;7.064;2023-08-06T01:45:05;13.80;99.90
7331;DHT22;3706;49.198;7.064;2023-08-06T01:47:32;13.70;99.90
7331;DHT22;3706;49.198;7.064;2023-08-06T01:50:00;13.70;99.90
7331;DHT22;3706;49.198;7.064;2023-08-06T01:52:27;13.70;99.90
7331;DHT22;3706;49.198;7.064;2023-08-06T01:54:55;13.60;99.90
7331;DHT22;3706;49.198;7.064;2023-08-06T01:57:22;13.60;99.90
7331;DHT22;3706;49.198;7.064;2023-08-06T01:59:49;13.50;99.90
7331;DHT22;3706;49.198;7.064;2023-08-06T02:02:16;13.50;99.90
7331;DHT22;3706;49.198;7.064;2023-08-06T02:04:43;13.40;99.90
7331;DHT22;3706;49.198;7.064;2023-08-06T02:07:10;13.40;99.90
7331;DHT22;3706;49.198;7.064;2023-08-06T02:09:37;13.40;99.90
7331;DHT22;3706;49.198;7.064;2023-08-06T02:12:06;13.40;99.90
7331;DHT22;3706;49.198;7.064;2023-08-06T02:14:33;13.40;99.90
7331;DHT22;3706;49.198;7.064;2023-08-06T02:17:00;13.40;99.90
7331;DHT22;3706;49.198;7.064;2023-08-06T02:19:27;13.40;99.90
7331;DHT22;3706;49.198;7.064;2023-08-06T02:21:54;13.50;99.90
7331;DHT22;3706;49.198;7.064;2023-08-06T02:24:21;13.40;99.90
7331;DHT22;3706;49.198;7.064;2023-08-06T02:26:48;13.50;99.90
7331;DHT22;3706;49.198;7.064;2023-08-06T02:29:18;13.50;99.90
7331;DHT22;3706;49.198;7.064;2023-08-06T02:31:44;13.40;99.90
7331;DHT22;3706;49.198;7.064;2023-08-06T02:34:11;13.40;99.90
7331;DHT22;3706;49.198;7.064;2023-08-06T02:36:38;13.40;99.90
7331;DHT22;3706;49.198;7.064;2023-08-06T02:39:05;13.40;99.90
7331;DHT22;3706;49.198;7.064;2023-08-06T02:41:32;13.30;99.90
7331;DHT22;3706;49.198;7.064;2023-08-06T02:43:59;13.30;99.90
7331;DHT22;3706;49.198;7.064;2023-08-06T02:46:27;13.30;99.90
7331;DHT22;3706;49.198;7.064;2023-08-06T02:48:54;13.30;99.90
7331;DHT22;3706;49.198;7.064;2023-08-06T02:51:21;13.30;99.90
7331;DHT22;3706;49.198;7.064;2023-08-06T02:53:48;13.30;99.90
7331;DHT22;3706;49.198;7.064;2023-08-06T02:56:14;13.20;99.90
7331;DHT22;3706;49.198;7.064;2023-08-06T02:58:41;13.30;99.90
7331;DHT22;3706;49.198;7.064;2023-08-06T03:01:08;13.30;99.90
7331;DHT22;3706;49.198;7.064;2023-08-06T03:03:36;13.30;99.90
7331;DHT22;3706;49.198;7.064;2023-08-06T03:06:03;13.30;99.90
7331;DHT22;3706;49.198;7.064;2023-08-06T03:08:30;13.30;99.90
7331;DHT22;3706;49.198;7.064;2023-08-06T03:10:57;13.30;99.90
7331;DHT22;3706;49.198;7.064;2023-08-06T03:13:24;13.20;99.90
7331;DHT22;3706;49.198;7.064;2023-08-06T03:15:52;13.20;99.90
7331;DHT22;3706;49.198;7.064;2023-08-06T03:18:20;13.20;99.90
7331;DHT22;3706;49.198;7.064;2023-08-06T03:20:49;13.20;99.90
7331;DHT22;3706;49.198;7.064;2023-08-06T03:23:16;13.10;99.90
7331;DHT22;3706;49.198;7.064;2023-08-06T03:25:43;13.10;99.90
7331;DHT22;3706;49.198;7.064;2023-08-06T03:28:10;13.10;99.90
7331;DHT22;3706;49.198;7.064;2023-08-06T03:30:37;13.00;99.90
7331;DHT22;3706;49.198;7.064;2023-08-06T03:33:04;13.00;99.90
7331;DHT22;3706;49.198;7.064;2023-08-06T03:35:31;13.00;99.90
7331;DHT22;3706;49.198;7.064;2023-08-06T03:37:59;13.00;99.90
7331;DHT22;3706;49.198;7.064;2023-08-06T03:40:26;12.90;99.90
7331;DHT22;3706;49.198;7.064;2023-08-06T03:42:53;12.90;99.90
7331;DHT22;3706;49.198;7.064;2023-08-06T03:45:20;12.90;99.90
7331;DHT22;3706;49.198;7.064;2023-08-06T03:47:47;12.90;99.90
7331;DHT22;3706;49.198;7.064;2023-08-06T03:50:14;12.90;99.90
7331;DHT22;3706;49.198;7.064;2023-08-06T03:52:41;12.90;99.90
7331;DHT22;3706;49.198;7.064;2023-08-06T03:55:09;12.90;99.90
7331;DHT22;3706;49.198;7.064;2023-08-06T03:57:36;13.00;99.90
7331;DHT22;3706;49.198;7.064;2023-08-06T04:00:03;12.90;99.90
7331;DHT22;3706;49.198;7.064;2023-08-06T04:02:30;13.00;99.90
7331;DHT22;3706;49.198;7.064;2023-08-06T04:04:57;13.00;99.90
7331;DHT22;3706;49.198;7.064;2023-08-06T04:07:24;13.00;99.90
7331;DHT22;3706;49.198;7.064;2023-08-06T04:09:56;13.10;99.90
7331;DHT22;3706;49.198;7.064;2023-08-06T04:12:24;13.10;99.90
7331;DHT22;3706;49.198;7.064;2023-08-06T04:14:52;13.10;99.90
7331;DHT22;3706;49.198;7.064;2023-08-06T04:17:20;13.00;99.90
7331;DHT22;3706;49.198;7.064;2023-08-06T04:19:48;13.00;99.90
7331;DHT22;3706;49.198;7.064;2023-08-06T04:22:15;13.10;99.90
7331;DHT22;3706;49.198;7.064;2023-08-06T04:24:42;13.10;99.90
7331;DHT22;3706;49.198;7.064;2023-08-06T04:27:09;13.10;99.90
7331;DHT22;3706;49.198;7.064;2023-08-06T04:29:38;13.10;99.90
7331;DHT22;3706;49.198;7.064;2023-08-06T04:32:07;13.10;99.90
7331;DHT22;3706;49.198;7.064;2023-08-06T04:34:35;13.10;99.90
7331;DHT22;3706;49.198;7.064;2023-08-06T04:37:02;13.10;99.90
7331;DHT22;3706;49.198;7.064;2023-08-06T04:39:30;13.10;99.90
7331;DHT22;3706;49.198;7.064;2023-08-06T04:41:57;13.10;99.90
7331;DHT22;3706;49.198;7.064;2023-08-06T04:44:24;13.10;99.90
7331;DHT22;3706;49.198;7.064;2023-08-06T04:46:52;13.10;99.90
7331;DHT22;3706;49.198;7.064;2023-08-06T04:49:20;13.10;99.90
7331;DHT22;3706;49.198;7.064;2023-08-06T04:51:47;13.10;99.90
7331;DHT22;3706;49.198;7.064;2023-08-06T04:54:14;13.20;99.90
7331;DHT22;3706;49.198;7.064;2023-08-06T04:56:41;13.20;99.90
7331;DHT22;3706;49.198;7.064;2023-08-06T04:59:08;13.20;99.90
7331;DHT22;3706;49.198;7.064;2023-08-06T05:01:35;13.20;99.90
7331;DHT22;3706;49.198;7.064;2023-08-06T05:04:04;13.20;99.90
7331;DHT22;3706;49.198;7.064;2023-08-06T05:06:30;13.20;99.90
7331;DHT22;3706;49.198;7.064;2023-08-06T05:08:57;13.20;99.90
7331;DHT22;3706;49.198;7.064;2023-08-06T05:11:24;13.10;99.90
7331;DHT22;3706;49.198;7.064;2023-08-06T05:13:51;13.10;99.90
7331;DHT22;3706;49.198;7.064;2023-08-06T05:16:18;13.10;99.90
7331;DHT22;3706;49.198;7.064;2023-08-06T05:18:45;13.20;99.90
7331;DHT22;3706;49.198;7.064;2023-08-06T05:21:13;13.20;99.90
7331;DHT22;3706;49.198;7.064;2023-08-06T05:23:41;13.20;99.90
7331;DHT22;3706;49.198;7.064;2023-08-06T05:26:09;13.20;99.90
7331;DHT22;3706;49.198;7.064;2023-08-06T05:28:35;13.20;99.90
7331;DHT22;3706;49.198;7.064;2023-08-06T05:31:05;13.20;99.90
7331;DHT22;3706;49.198;7.064;2023-08-06T05:33:32;13.20;99.90
7331;DHT22;3706;49.198;7.064;2023-08-06T05:35:59;13.20;99.90
7331;DHT22;3706;49.198;7.064;2023-08-06T05:38:28;13.30;99.90
7331;DHT22;3706;49.198;7.064;2023-08-06T05:40:55;13.30;99.90
7331;DHT22;3706;49.198;7.064;2023-08-06T05:43:22;13.30;99.90
7331;DHT22;3706;49.198;7.064;2023-08-06T05:45:50;13.30;99.90
7331;DHT22;3706;49.198;7.064;2023-08-06T05:48:17;13.30;99.90
7331;DHT22;3706;49.198;7.064;2023-08-06T05:50:44;13.40;99.90
7331;DHT22;3706;49.198;7.064;2023-08-06T05:53:11;13.40;99.90
7331;DHT22;3706;49.198;7.064;2023-08-06T05:55:40;13.40;99.90
7331;DHT22;3706;49.198;7.064;2023-08-06T05:58:07;13.50;99.90
7331;DHT22;3706;49.198;7.064;2023-08-06T06:00:34;13.50;99.90
7331;DHT22;3706;49.198;7.064;2023-08-06T06:03:01;13.60;99.90
7331;DHT22;3706;49.198;7.064;2023-08-06T06:05:28;13.70;99.90
7331;DHT22;3706;49.198;7.064;2023-08-06T06:07:55;13.70;99.90
7331;DHT22;3706;49.198;7.064;2023-08-06T06:10:22;13.80;99.90
7331;DHT22;3706;49.198;7.064;2023-08-06T06:12:50;13.90;99.90
7331;DHT22;3706;49.198;7.064;2023-08-06T06:15:17;13.90;99.90
7331;DHT22;3706;49.198;7.064;2023-08-06T06:17:44;13.80;99.90
7331;DHT22;3706;49.198;7.064;2023-08-06T06:20:11;13.80;99.90
7331;DHT22;3706;49.198;7.064;2023-08-06T06:22:38;13.80;99.90
7331;DHT22;3706;49.198;7.064;2023-08-06T06:25:06;13.90;99.90
7331;DHT22;3706;49.198;7.064;2023-08-06T06:27:33;13.90;99.90
7331;DHT22;3706;49.198;7.064;2023-08-06T06:30:01;14.00;99.90
7331;DHT22;3706;49.198;7.064;2023-08-06T06:32:29;14.00;99.90
7331;DHT22;3706;49.198;7.064;2023-08-06T06:34:56;14.10;99.90
7331;DHT22;3706;49.198;7.064;2023-08-06T06:37:24;14.30;99.90
7331;DHT22;3706;49.198;7.064;2023-08-06T06:39:51;14.40;99.90
7331;DHT22;3706;49.198;7.064;2023-08-06T06:42:18;14.50;99.90
7331;DHT22;3706;49.198;7.064;2023-08-06T06:44:44;14.60;99.90
7331;DHT22;3706;49.198;7.064;2023-08-06T06:47:13;14.70;99.90
7331;DHT22;3706;49.198;7.064;2023-08-06T06:49:40;14.80;99.90
7331;DHT22;3706;49.198;7.064;2023-08-06T06:52:07;14.80;99.90
7331;DHT22;3706;49.198;7.064;2023-08-06T06:54:34;14.70;99.90
7331;DHT22;3706;49.198;7.064;2023-08-06T06:57:01;14.70;99.90
7331;DHT22;3706;49.198;7.064;2023-08-06T06:59:27;14.70;99.90
7331;DHT22;3706;49.198;7.064;2023-08-06T07:01:54;14.60;99.90
7331;DHT22;3706;49.198;7.064;2023-08-06T07:04:22;14.50;99.90
7331;DHT22;3706;49.198;7.064;2023-08-06T07:06:49;14.40;99.90
7331;DHT22;3706;49.198;7.064;2023-08-06T07:09:17;14.40;99.90
7331;DHT22;3706;49.198;7.064;2023-08-06T07:11:44;14.40;99.90
7331;DHT22;3706;49.198;7.064;2023-08-06T07:14:11;14.40;99.90
7331;DHT22;3706;49.198;7.064;2023-08-06T07:16:40;14.40;99.90
7331;DHT22;3706;49.198;7.064;2023-08-06T07:19:07;14.50;99.90
7331;DHT22;3706;49.198;7.064;2023-08-06T07:21:35;14.70;99.90
7331;DHT22;3706;49.198;7.064;2023-08-06T07:24:02;14.80;99.90
7331;DHT22;3706;49.198;7.064;2023-08-06T07:26:29;14.90;99.90
7331;DHT22;3706;49.198;7.064;2023-08-06T07:28:56;15.10;99.90
7331;DHT22;3706;49.198;7.064;2023-08-06T07:31:23;15.30;99.90
7331;DHT22;3706;49.198;7.064;2023-08-06T07:33:49;15.40;99.90
7331;DHT22;3706;49.198;7.064;2023-08-06T07:36:16;15.40;99.90
7331;DHT22;3706;49.198;7.064;2023-08-06T07:38:45;15.30;99.90
7331;DHT22;3706;49.198;7.064;2023-08-06T07:41:12;15.10;99.90
7331;DHT22;3706;49.198;7.064;2023-08-06T07:43:39;15.00;99.90
7331;DHT22;3706;49.198;7.064;2023-08-06T07:46:05;14.90;99.90
7331;DHT22;3706;49.198;7.064;2023-08-06T07:48:32;14.90;99.90
7331;DHT22;3706;49.198;7.064;2023-08-06T07:50:59;14.80;99.90
7331;DHT22;3706;49.198;7.064;2023-08-06T07:53:26;14.70;99.90
7331;DHT22;3706;49.198;7.064;2023-08-06T07:55:56;14.70;99.90
7331;DHT22;3706;49.198;7.064;2023-08-06T07:58:24;14.80;99.90
7331;DHT22;3706;49.198;7.064;2023-08-06T08:00:51;14.90;99.90
7331;DHT22;3706;49.198;7.064;2023-08-06T08:03:18;15.00;99.90
7331;DHT22;3706;49.198;7.064;2023-08-06T08:05:45;15.10;99.90
7331;DHT22;3706;49.198;7.064;2023-08-06T08:08:12;15.20;99.90
7331;DHT22;3706;49.198;7.064;2023-08-06T08:10:39;15.30;99.90
7331;DHT22;3706;49.198;7.064;2023-08-06T08:13:07;15.40;99.90
7331;DHT22;3706;49.198;7.064;2023-08-06T08:15:34;15.50;99.90
7331;DHT22;3706;49.198;7.064;2023-08-06T08:18:01;15.60;99.90
7331;DHT22;3706;49.198;7.064;2023-08-06T08:20:28;15.70;99.90
7331;DHT22;3706;49.198;7.064;2023-08-06T08:22:58;15.80;99.90
7331;DHT22;3706;49.198;7.064;2023-08-06T08:25:26;15.80;99.90
7331;DHT22;3706;49.198;7.064;2023-08-06T08:27:53;15.80;99.90
7331;DHT22;3706;49.198;7.064;2023-08-06T08:30:22;15.70;99.90
7331;DHT22;3706;49.198;7.064;2023-08-06T08:32:50;15.50;99.90
7331;DHT22;3706;49.198;7.064;2023-08-06T08:35:17;15.40;99.90
7331;DHT22;3706;49.198;7.064;2023-08-06T08:37:44;15.30;99.90
7331;DHT22;3706;49.198;7.064;2023-08-06T08:40:11;15.40;99.90
7331;DHT22;3706;49.198;7.064;2023-08-06T08:42:38;15.30;99.90
7331;DHT22;3706;49.198;7.064;2023-08-06T08:45:10;15.20;99.90
7331;DHT22;3706;49.198;7.064;2023-08-06T08:47:40;15.10;99.90
7331;DHT22;3706;49.198;7.064;2023-08-06T08:50:09;15.00;99.90
7331;DHT22;3706;49.198;7.064;2023-08-06T08:52:38;15.00;99.90
7331;DHT22;3706;49.198;7.064;2023-08-06T08:55:07;15.00;99.90
7331;DHT22;3706;49.198;7.064;2023-08-06T08:57:34;15.00;99.90
7331;DHT22;3706;49.198;7.064;2023-08-06T09:00:01;15.00;99.90
7331;DHT22;3706;49.198;7.064;2023-08-06T09:02:28;15.00;99.90
7331;DHT22;3706;49.198;7.064;2023-08-06T09:05:00;15.10;99.90
7331;DHT22;3706;49.198;7.064;2023-08-06T09:07:31;15.10;99.90
7331;DHT22;3706;49.198;7.064;2023-08-06T09:10:02;15.20;99.90
7331;DHT22;3706;49.198;7.064;2023-08-06T09:12:30;15.30;99.90
7331;DHT22;3706;49.198;7.064;2023-08-06T09:14:57;15.30;99.90
7331;DHT22;3706;49.198;7.064;2023-08-06T09:17:25;15.30;99.90
7331;DHT22;3706;49.198;7.064;2023-08-06T09:19:53;15.30;99.90
7331;DHT22;3706;49.198;7.064;2023-08-06T09:22:21;15.30;99.90
7331;DHT22;3706;49.198;7.064;2023-08-06T09:24:48;15.40;99.90
7331;DHT22;3706;49.198;7.064;2023-08-06T09:27:16;15.40;99.90
7331;DHT22;3706;49.198;7.064;2023-08-06T09:29:44;15.40;99.90
7331;DHT22;3706;49.198;7.064;2023-08-06T09:32:12;15.40;99.90
7331;DHT22;3706;49.198;7.064;2023-08-06T09:34:41;15.30;99.90
7331;DHT22;3706;49.198;7.064;2023-08-06T09:37:09;15.30;99.90
7331;DHT22;3706;49.198;7.064;2023-08-06T09:39:39;15.20;99.90
7331;DHT22;3706;49.198;7.064;2023-08-06T09:42:07;15.30;99.90
7331;DHT22;3706;49.198;7.064;2023-08-06T09:44:34;15.50;99.90
7331;DHT22;3706;49.198;7.064;2023-08-06T09:47:02;15.70;99.90
7331;DHT22;3706;49.198;7.064;2023-08-06T09:49:41;15.70;99.90
7331;DHT22;3706;49.198;7.064;2023-08-06T09:52:11;15.90;99.90
7331;DHT22;3706;49.198;7.064;2023-08-06T09:54:39;15.90;99.90
7331;DHT22;3706;49.198;7.064;2023-08-06T09:57:06;15.90;99.90
7331;DHT22;3706;49.198;7.064;2023-08-06T09:59:34;15.90;99.90
7331;DHT22;3706;49.198;7.064;2023-08-06T10:02:03;16.20;99.90
7331;DHT22;3706;49.198;7.064;2023-08-06T10:04:33;16.50;99.90
7331;DHT22;3706;49.198;7.064;2023-08-06T10:07:00;17.00;99.90
7331;DHT22;3706;49.198;7.064;2023-08-06T10:09:27;17.30;99.90
7331;DHT22;3706;49.198;7.064;2023-08-06T10:11:57;17.70;99.90
7331;DHT22;3706;49.198;7.064;2023-08-06T10:14:27;17.80;99.90
7331;DHT22;3706;49.198;7.064;2023-08-06T10:16:57;17.80;99.90
7331;DHT22;3706;49.198;7.064;2023-08-06T10:19:25;17.90;99.90
7331;DHT22;3706;49.198;7.064;2023-08-06T10:22:09;18.10;99.90
7331;DHT22;3706;49.198;7.064;2023-08-06T10:24:50;18.40;99.90
7331;DHT22;3706;49.198;7.064;2023-08-06T10:27:29;18.70;99.90
7331;DHT22;3706;49.198;7.064;2023-08-06T10:30:23;19.20;99.90
7331;DHT22;3706;49.198;7.064;2023-08-06T10:32:51;19.40;99.90
7331;DHT22;3706;49.198;7.064;2023-08-06T10:35:34;19.90;99.90
7331;DHT22;3706;49.198;7.064;2023-08-06T10:38:07;19.80;99.90
7331;DHT22;3706;49.198;7.064;2023-08-06T10:40:35;19.20;99.90
7331;DHT22;3706;49.198;7.064;2023-08-06T10:43:04;18.70;99.90
7331;DHT22;3706;49.198;7.064;2023-08-06T10:45:35;18.40;99.90
7331;DHT22;3706;49.198;7.064;2023-08-06T10:48:02;18.20;99.90
7331;DHT22;3706;49.198;7.064;2023-08-06T10:50:29;18.00;99.90
7331;DHT22;3706;49.198;7.064;2023-08-06T10:53:03;17.90;99.90
7331;DHT22;3706;49.198;7.064;2023-08-06T10:55:30;17.90;99.90
7331;DHT22;3706;49.198;7.064;2023-08-06T10:57:58;18.00;99.90
7331;DHT22;3706;49.198;7.064;2023-08-06T11:00:26;18.30;99.90
7331;DHT22;3706;49.198;7.064;2023-08-06T11:02:53;19.00;99.90
7331;DHT22;3706;49.198;7.064;2023-08-06T11:05:21;19.80;99.90
7331;DHT22;3706;49.198;7.064;2023-08-06T11:07:48;20.70;99.90
7331;DHT22;3706;49.198;7.064;2023-08-06T11:10:16;21.60;99.90
7331;DHT22;3706;49.198;7.064;2023-08-06T11:12:43;22.10;99.90
7331;DHT22;3706;49.198;7.064;2023-08-06T11:15:10;21.80;99.90
7331;DHT22;3706;49.198;7.064;2023-08-06T11:17:41;21.10;99.90
7331;DHT22;3706;49.198;7.064;2023-08-06T11:20:09;20.10;99.90
7331;DHT22;3706;49.198;7.064;2023-08-06T11:22:37;19.20;99.90
7331;DHT22;3706;49.198;7.064;2023-08-06T11:25:05;18.30;99.90
7331;DHT22;3706;49.198;7.064;2023-08-06T11:27:32;17.60;99.90
7331;DHT22;3706;49.198;7.064;2023-08-06T11:29:59;17.10;99.90
7331;DHT22;3706;49.198;7.064;2023-08-06T11:32:26;16.70;99.90
7331;DHT22;3706;49.198;7.064;2023-08-06T11:34:56;16.40;99.90
7331;DHT22;3706;49.198;7.064;2023-08-06T11:37:23;16.10;99.90
7331;DHT22;3706;49.198;7.064;2023-08-06T11:39:51;16.00;99.90
7331;DHT22;3706;49.198;7.064;2023-08-06T11:42:18;15.90;99.90
7331;DHT22;3706;49.198;7.064;2023-08-06T11:44:45;15.70;99.90
7331;DHT22;3706;49.198;7.064;2023-08-06T11:47:14;15.50;99.90
7331;DHT22;3706;49.198;7.064;2023-08-06T11:49:43;15.60;99.90
7331;DHT22;3706;49.198;7.064;2023-08-06T11:52:16;16.00;99.90
7331;DHT22;3706;49.198;7.064;2023-08-06T11:54:45;16.40;99.90
7331;DHT22;3706;49.198;7.064;2023-08-06T11:57:12;16.80;99.90
7331;DHT22;3706;49.198;7.064;2023-08-06T11:59:39;17.50;99.90
7331;DHT22;3706;49.198;7.064;2023-08-06T12:02:09;18.40;99.90
7331;DHT22;3706;49.198;7.064;2023-08-06T12:05:02;19.10;99.90
7331;DHT22;3706;49.198;7.064;2023-08-06T12:07:32;19.60;99.90
7331;DHT22;3706;49.198;7.064;2023-08-06T12:10:03;19.90;99.90
7331;DHT22;3706;49.198;7.064;2023-08-06T12:12:31;20.00;99.90
7331;DHT22;3706;49.198;7.064;2023-08-06T12:14:58;20.00;99.90
7331;DHT22;3706;49.198;7.064;2023-08-06T12:17:25;19.70;99.90
7331;DHT22;3706;49.198;7.064;2023-08-06T12:19:52;19.20;99.90
7331;DHT22;3706;49.198;7.064;2023-08-06T12:22:19;18.50;99.90
7331;DHT22;3706;49.198;7.064;2023-08-06T12:24:47;18.00;99.90
7331;DHT22;3706;49.198;7.064;2023-08-06T12:27:14;17.40;99.90
7331;DHT22;3706;49.198;7.064;2023-08-06T12:29:43;17.00;99.90
7331;DHT22;3706;49.198;7.064;2023-08-06T12:32:10;16.80;99.90
7331;DHT22;3706;49.198;7.064;2023-08-06T12:34:38;17.20;99.90
7331;DHT22;3706;49.198;7.064;2023-08-06T12:37:05;18.00;99.90
7331;DHT22;3706;49.198;7.064;2023-08-06T12:39:33;19.00;99.90
7331;DHT22;3706;49.198;7.064;2023-08-06T12:42:02;19.60;99.90
7331;DHT22;3706;49.198;7.064;2023-08-06T12:44:29;20.40;99.90
7331;DHT22;3706;49.198;7.064;2023-08-06T12:46:56;20.90;99.90
7331;DHT22;3706;49.198;7.064;2023-08-06T12:49:24;21.50;99.90
7331;DHT22;3706;49.198;7.064;2023-08-06T12:51:52;21.80;99.90
7331;DHT22;3706;49.198;7.064;2023-08-06T12:54:19;21.80;99.90
7331;DHT22;3706;49.198;7.064;2023-08-06T12:56:47;22.00;99.90
7331;DHT22;3706;49.198;7.064;2023-08-06T12:59:16;22.10;99.90
7331;DHT22;3706;49.198;7.064;2023-08-06T13:01:44;22.50;99.90
7331;DHT22;3706;49.198;7.064;2023-08-06T13:04:11;22.90;99.90
7331;DHT22;3706;49.198;7.064;2023-08-06T13:06:38;22.50;99.90
7331;DHT22;3706;49.198;7.064;2023-08-06T13:09:06;21.70;99.90
7331;DHT22;3706;49.198;7.064;2023-08-06T13:11:34;20.70;99.90
7331;DHT22;3706;49.198;7.064;2023-08-06T13:14:05;19.60;99.90
7331;DHT22;3706;49.198;7.064;2023-08-06T13:16:33;18.70;99.90
7331;DHT22;3706;49.198;7.064;2023-08-06T13:19:01;18.20;99.90
7331;DHT22;3706;49.198;7.064;2023-08-06T13:21:32;17.90;99.90
7331;DHT22;3706;49.198;7.064;2023-08-06T13:23:59;17.70;99.90
7331;DHT22;3706;49.198;7.064;2023-08-06T13:26:27;17.30;99.90
7331;DHT22;3706;49.198;7.064;2023-08-06T13:28:54;17.00;99.90
7331;DHT22;3706;49.198;7.064;2023-08-06T13:31:21;16.70;99.90
7331;DHT22;3706;49.198;7.064;2023-08-06T13:33:49;16.40;99.90
7331;DHT22;3706;49.198;7.064;2023-08-06T13:36:16;16.60;99.90
7331;DHT22;3706;49.198;7.064;2023-08-06T13:38:43;17.10;99.90
7331;DHT22;3706;49.198;7.064;2023-08-06T13:41:10;17.30;99.90
7331;DHT22;3706;49.198;7.064;2023-08-06T13:43:38;17.70;99.90
7331;DHT22;3706;49.198;7.064;2023-08-06T13:46:05;18.30;99.90
7331;DHT22;3706;49.198;7.064;2023-08-06T13:48:32;18.70;99.90
7331;DHT22;3706;49.198;7.064;2023-08-06T13:51:00;19.10;99.90
7331;DHT22;3706;49.198;7.064;2023-08-06T13:53:27;19.40;99.90
7331;DHT22;3706;49.198;7.064;2023-08-06T13:55:55;19.60;99.90
7331;DHT22;3706;49.198;7.064;2023-08-06T13:58:23;19.80;99.90
7331;DHT22;3706;49.198;7.064;2023-08-06T14:00:51;20.00;99.90
7331;DHT22;3706;49.198;7.064;2023-08-06T14:03:19;20.20;99.90
7331;DHT22;3706;49.198;7.064;2023-08-06T14:05:46;20.20;99.90
7331;DHT22;3706;49.198;7.064;2023-08-06T14:08:15;20.30;99.90
7331;DHT22;3706;49.198;7.064;2023-08-06T14:10:43;20.40;99.90
7331;DHT22;3706;49.198;7.064;2023-08-06T14:13:10;20.50;99.90
7331;DHT22;3706;49.198;7.064;2023-08-06T14:15:38;20.70;99.90
7331;DHT22;3706;49.198;7.064;2023-08-06T14:18:06;20.80;99.90
7331;DHT22;3706;49.198;7.064;2023-08-06T14:20:34;21.00;99.90
7331;DHT22;3706;49.198;7.064;2023-08-06T14:23:00;21.20;99.90
7331;DHT22;3706;49.198;7.064;2023-08-06T14:25:29;21.20;99.90
7331;DHT22;3706;49.198;7.064;2023-08-06T14:27:56;21.10;99.90
7331;DHT22;3706;49.198;7.064;2023-08-06T14:30:23;20.60;99.90
7331;DHT22;3706;49.198;7.064;2023-08-06T14:32:50;20.60;99.90
7331;DHT22;3706;49.198;7.064;2023-08-06T14:35:17;20.60;99.90
7331;DHT22;3706;49.198;7.064;2023-08-06T14:37:44;20.40;99.90
7331;DHT22;3706;49.198;7.064;2023-08-06T14:40:11;19.80;99.90
7331;DHT22;3706;49.198;7.064;2023-08-06T14:42:39;19.20;99.90
7331;DHT22;3706;49.198;7.064;2023-08-06T14:45:07;18.60;99.90
7331;DHT22;3706;49.198;7.064;2023-08-06T14:47:34;18.40;99.90
7331;DHT22;3706;49.198;7.064;2023-08-06T14:50:01;18.50;99.90
7331;DHT22;3706;49.198;7.064;2023-08-06T14:52:28;18.70;99.90
7331;DHT22;3706;49.198;7.064;2023-08-06T14:54:55;18.70;99.90
7331;DHT22;3706;49.198;7.064;2023-08-06T14:57:22;18.60;99.90
7331;DHT22;3706;49.198;7.064;2023-08-06T14:59:54;18.50;99.90
7331;DHT22;3706;49.198;7.064;2023-08-06T15:02:21;18.20;99.90
7331;DHT22;3706;49.198;7.064;2023-08-06T15:04:48;17.80;99.90
7331;DHT22;3706;49.198;7.064;2023-08-06T15:07:15;17.10;99.90
7331;DHT22;3706;49.198;7.064;2023-08-06T15:09:42;16.40;99.90
7331;DHT22;3706;49.198;7.064;2023-08-06T15:12:10;16.00;99.90
7331;DHT22;3706;49.198;7.064;2023-08-06T15:14:38;15.60;99.90
7331;DHT22;3706;49.198;7.064;2023-08-06T15:17:06;15.50;99.90
7331;DHT22;3706;49.198;7.064;2023-08-06T15:19:33;15.50;99.90
7331;DHT22;3706;49.198;7.064;2023-08-06T15:22:00;15.50;99.90
7331;DHT22;3706;49.198;7.064;2023-08-06T15:24:27;15.70;99.90
7331;DHT22;3706;49.198;7.064;2023-08-06T15:26:54;16.00;99.90
7331;DHT22;3706;49.198;7.064;2023-08-06T15:29:20;16.20;99.90
7331;DHT22;3706;49.198;7.064;2023-08-06T15:31:47;16.40;99.90
7331;DHT22;3706;49.198;7.064;2023-08-06T15:34:16;16.60;99.90
7331;DHT22;3706;49.198;7.064;2023-08-06T15:36:42;16.90;99.90
7331;DHT22;3706;49.198;7.064;2023-08-06T15:39:09;17.10;99.90
7331;DHT22;3706;49.198;7.064;2023-08-06T15:41:36;17.00;99.90
7331;DHT22;3706;49.198;7.064;2023-08-06T15:44:04;17.00;99.90
7331;DHT22;3706;49.198;7.064;2023-08-06T15:46:30;17.10;99.90
7331;DHT22;3706;49.198;7.064;2023-08-06T15:49:00;17.30;99.90
7331;DHT22;3706;49.198;7.064;2023-08-06T15:51:28;17.50;99.90
7331;DHT22;3706;49.198;7.064;2023-08-06T15:53:55;17.40;99.90
7331;DHT22;3706;49.198;7.064;2023-08-06T15:56:22;17.40;99.90
7331;DHT22;3706;49.198;7.064;2023-08-06T15:58:49;17.40;99.90
7331;DHT22;3706;49.198;7.064;2023-08-06T16:01:16;17.50;99.90
7331;DHT22;3706;49.198;7.064;2023-08-06T16:03:43;17.40;99.90
7331;DHT22;3706;49.198;7.064;2023-08-06T16:06:10;17.40;99.90